sensor_id;sensor_type;location;lat;lon;timestamp;P1;durP1;ratioP1;P2;durP2;ratioP2
51862;SDS011;37900;52.996;6.278;2022-07-01T00:02:15;2.13;;;1.80;;
51862;SDS011;37900;52.996;6.278;2022-07-01T00:04:40;3.15;;;2.20;;
51862;SDS011;37900;52.996;6.278;2022-07-01T00:07:06;3.58;;;2.58;;
51862;SDS011;37900;52.996;6.278;2022-07-01T00:09:32;3.15;;;2.00;;
51862;SDS011;37900;52.996;6.278;2022-07-01T00:11:58;2.72;;;2.28;;
51862;SDS011;37900;52.996;6.278;2022-07-01T00:14:23;2.75;;;2.17;;
51862;SDS011;37900;52.996;6.278;2022-07-01T00:16:49;3.35;;;2.47;;
51862;SDS011;37900;52.996;6.278;2022-07-01T00:19:16;3.00;;;2.17;;
51862;SDS011;37900;52.996;6.278;2022-07-01T00:21:42;2.75;;;2.00;;
51862;SDS011;37900;52.996;6.278;2022-07-01T00:24:07;3.05;;;2.13;;
51862;SDS011;37900;52.996;6.278;2022-07-01T00:26:33;2.97;;;2.47;;
51862;SDS011;37900;52.996;6.278;2022-07-01T00:28:59;2.33;;;1.80;;
51862;SDS011;37900;52.996;6.278;2022-07-01T00:31:25;4.10;;;2.20;;
51862;SDS011;37900;52.996;6.278;2022-07-01T00:33:50;2.35;;;2.00;;
51862;SDS011;37900;52.996;6.278;2022-07-01T00:36:16;3.03;;;1.95;;
51862;SDS011;37900;52.996;6.278;2022-07-01T00:38:41;2.40;;;2.15;;
51862;SDS011;37900;52.996;6.278;2022-07-01T00:41:07;2.65;;;2.00;;
51862;SDS011;37900;52.996;6.278;2022-07-01T00:43:36;3.25;;;1.92;;
51862;SDS011;37900;52.996;6.278;2022-07-01T00:46:03;2.30;;;1.90;;
51862;SDS011;37900;52.996;6.278;2022-07-01T00:48:30;2.17;;;1.80;;
51862;SDS011;37900;52.996;6.278;2022-07-01T00:50:57;3.50;;;2.22;;
51862;SDS011;37900;52.996;6.278;2022-07-01T00:53:23;3.10;;;2.33;;
51862;SDS011;37900;52.996;6.278;2022-07-01T00:55:50;2.92;;;2.33;;
51862;SDS011;37900;52.996;6.278;2022-07-01T00:58:16;2.28;;;2.00;;
51862;SDS011;37900;52.996;6.278;2022-07-01T01:00:42;2.78;;;2.00;;
51862;SDS011;37900;52.996;6.278;2022-07-01T01:03:08;2.45;;;2.05;;
51862;SDS011;37900;52.996;6.278;2022-07-01T01:05:36;2.78;;;1.83;;
51862;SDS011;37900;52.996;6.278;2022-07-01T01:08:03;2.28;;;2.08;;
51862;SDS011;37900;52.996;6.278;2022-07-01T01:10:30;3.42;;;2.08;;
51862;SDS011;37900;52.996;6.278;2022-07-01T01:12:56;2.20;;;2.00;;
51862;SDS011;37900;52.996;6.278;2022-07-01T01:15:22;3.47;;;1.80;;
51862;SDS011;37900;52.996;6.278;2022-07-01T01:17:49;3.13;;;2.10;;
51862;SDS011;37900;52.996;6.278;2022-07-01T01:20:15;2.30;;;1.92;;
51862;SDS011;37900;52.996;6.278;2022-07-01T01:22:42;3.00;;;1.90;;
51862;SDS011;37900;52.996;6.278;2022-07-01T01:25:09;2.58;;;2.22;;
51862;SDS011;37900;52.996;6.278;2022-07-01T01:27:35;2.53;;;2.05;;
51862;SDS011;37900;52.996;6.278;2022-07-01T01:30:05;3.08;;;2.28;;
51862;SDS011;37900;52.996;6.278;2022-07-01T01:32:33;1.92;;;1.70;;
51862;SDS011;37900;52.996;6.278;2022-07-01T01:34:59;2.78;;;1.90;;
51862;SDS011;37900;52.996;6.278;2022-07-01T01:37:25;2.42;;;1.90;;
51862;SDS011;37900;52.996;6.278;2022-07-01T01:39:52;2.63;;;1.98;;
51862;SDS011;37900;52.996;6.278;2022-07-01T01:42:18;2.85;;;1.80;;
51862;SDS011;37900;52.996;6.278;2022-07-01T01:44:44;3.08;;;1.83;;
51862;SDS011;37900;52.996;6.278;2022-07-01T01:47:10;1.75;;;1.65;;
51862;SDS011;37900;52.996;6.278;2022-07-01T01:49:36;3.22;;;1.75;;
51862;SDS011;37900;52.996;6.278;2022-07-01T01:52:02;2.70;;;1.60;;
51862;SDS011;37900;52.996;6.278;2022-07-01T01:54:28;2.92;;;1.95;;
51862;SDS011;37900;52.996;6.278;2022-07-01T01:56:54;2.85;;;2.00;;
51862;SDS011;37900;52.996;6.278;2022-07-01T01:59:20;2.67;;;1.80;;
51862;SDS011;37900;52.996;6.278;2022-07-01T02:01:46;2.05;;;1.80;;
51862;SDS011;37900;52.996;6.278;2022-07-01T02:04:11;2.63;;;1.95;;
51862;SDS011;37900;52.996;6.278;2022-07-01T02:06:37;2.15;;;1.95;;
51862;SDS011;37900;52.996;6.278;2022-07-01T02:09:06;2.00;;;1.80;;
51862;SDS011;37900;52.996;6.278;2022-07-01T02:11:32;2.90;;;1.70;;
51862;SDS011;37900;52.996;6.278;2022-07-01T02:13:58;2.28;;;1.77;;
51862;SDS011;37900;52.996;6.278;2022-07-01T02:16:23;2.58;;;1.73;;
51862;SDS011;37900;52.996;6.278;2022-07-01T02:18:49;2.60;;;1.80;;
51862;SDS011;37900;52.996;6.278;2022-07-01T02:21:15;3.83;;;1.95;;
51862;SDS011;37900;52.996;6.278;2022-07-01T02:23:41;3.38;;;2.22;;
51862;SDS011;37900;52.996;6.278;2022-07-01T02:26:06;1.73;;;1.63;;
51862;SDS011;37900;52.996;6.278;2022-07-01T02:28:32;2.10;;;1.73;;
51862;SDS011;37900;52.996;6.278;2022-07-01T02:30:58;2.28;;;1.65;;
51862;SDS011;37900;52.996;6.278;2022-07-01T02:33:24;2.67;;;1.90;;
51862;SDS011;37900;52.996;6.278;2022-07-01T02:35:50;2.22;;;1.67;;
51862;SDS011;37900;52.996;6.278;2022-07-01T02:38:16;1.77;;;1.67;;
51862;SDS011;37900;52.996;6.278;2022-07-01T02:40:42;3.33;;;1.98;;
51862;SDS011;37900;52.996;6.278;2022-07-01T02:43:08;2.33;;;1.98;;
51862;SDS011;37900;52.996;6.278;2022-07-01T02:45:34;3.35;;;1.63;;
51862;SDS011;37900;52.996;6.278;2022-07-01T02:47:59;2.58;;;1.75;;
51862;SDS011;37900;52.996;6.278;2022-07-01T02:50:26;2.92;;;1.73;;
51862;SDS011;37900;52.996;6.278;2022-07-01T02:52:52;2.17;;;1.67;;
51862;SDS011;37900;52.996;6.278;2022-07-01T02:55:18;2.22;;;1.73;;
51862;SDS011;37900;52.996;6.278;2022-07-01T02:57:44;1.77;;;1.63;;
51862;SDS011;37900;52.996;6.278;2022-07-01T03:00:11;2.88;;;1.65;;
51862;SDS011;37900;52.996;6.278;2022-07-01T03:02:38;2.22;;;1.65;;
51862;SDS011;37900;52.996;6.278;2022-07-01T03:05:04;2.90;;;1.85;;
51862;SDS011;37900;52.996;6.278;2022-07-01T03:09:57;2.33;;;2.00;;
51862;SDS011;37900;52.996;6.278;2022-07-01T03:12:23;2.65;;;1.80;;
51862;SDS011;37900;52.996;6.278;2022-07-01T03:14:58;1.63;;;1.52;;
51862;SDS011;37900;52.996;6.278;2022-07-01T03:17:26;2.50;;;2.03;;
51862;SDS011;37900;52.996;6.278;2022-07-01T03:19:53;2.22;;;1.70;;
51862;SDS011;37900;52.996;6.278;2022-07-01T03:22:20;1.85;;;1.35;;
51862;SDS011;37900;52.996;6.278;2022-07-01T03:24:48;1.90;;;1.55;;
51862;SDS011;37900;52.996;6.278;2022-07-01T03:27:14;2.00;;;1.73;;
51862;SDS011;37900;52.996;6.278;2022-07-01T03:29:40;1.63;;;1.52;;
51862;SDS011;37900;52.996;6.278;2022-07-01T03:32:07;1.80;;;1.60;;
51862;SDS011;37900;52.996;6.278;2022-07-01T03:34:45;2.13;;;1.70;;
51862;SDS011;37900;52.996;6.278;2022-07-01T03:37:12;1.52;;;1.42;;
51862;SDS011;37900;52.996;6.278;2022-07-01T03:39:39;1.63;;;1.52;;
51862;SDS011;37900;52.996;6.278;2022-07-01T03:42:06;1.40;;;1.30;;
51862;SDS011;37900;52.996;6.278;2022-07-01T03:44:32;2.00;;;1.60;;
51862;SDS011;37900;52.996;6.278;2022-07-01T03:46:59;1.57;;;1.47;;
51862;SDS011;37900;52.996;6.278;2022-07-01T03:49:25;1.88;;;1.67;;
51862;SDS011;37900;52.996;6.278;2022-07-01T03:51:51;2.00;;;1.77;;
51862;SDS011;37900;52.996;6.278;2022-07-01T03:54:17;2.25;;;1.55;;
51862;SDS011;37900;52.996;6.278;2022-07-01T03:56:56;2.30;;;1.58;;
51862;SDS011;37900;52.996;6.278;2022-07-01T03:59:23;2.08;;;1.70;;
51862;SDS011;37900;52.996;6.278;2022-07-01T04:01:49;2.33;;;1.92;;
51862;SDS011;37900;52.996;6.278;2022-07-01T04:04:15;1.73;;;1.63;;
51862;SDS011;37900;52.996;6.278;2022-07-01T04:06:41;1.92;;;1.55;;
51862;SDS011;37900;52.996;6.278;2022-07-01T04:11:33;2.42;;;1.70;;
51862;SDS011;37900;52.996;6.278;2022-07-01T04:13:59;2.70;;;1.58;;
51862;SDS011;37900;52.996;6.278;2022-07-01T04:16:25;1.60;;;1.50;;
51862;SDS011;37900;52.996;6.278;2022-07-01T04:18:51;2.67;;;1.92;;
51862;SDS011;37900;52.996;6.278;2022-07-01T04:21:17;2.13;;;1.50;;
51862;SDS011;37900;52.996;6.278;2022-07-01T04:24:02;2.55;;;1.65;;
51862;SDS011;37900;52.996;6.278;2022-07-01T04:26:27;2.15;;;1.60;;
51862;SDS011;37900;52.996;6.278;2022-07-01T04:28:53;2.28;;;1.73;;
51862;SDS011;37900;52.996;6.278;2022-07-01T04:31:20;2.00;;;1.50;;
51862;SDS011;37900;52.996;6.278;2022-07-01T04:33:46;2.87;;;1.40;;
51862;SDS011;37900;52.996;6.278;2022-07-01T04:36:13;1.73;;;1.50;;
51862;SDS011;37900;52.996;6.278;2022-07-01T04:38:39;1.90;;;1.40;;
51862;SDS011;37900;52.996;6.278;2022-07-01T04:41:05;1.30;;;1.20;;
51862;SDS011;37900;52.996;6.278;2022-07-01T04:43:50;1.75;;;1.63;;
51862;SDS011;37900;52.996;6.278;2022-07-01T04:46:16;1.55;;;1.45;;
51862;SDS011;37900;52.996;6.278;2022-07-01T04:48:42;2.47;;;1.92;;
51862;SDS011;37900;52.996;6.278;2022-07-01T04:51:07;2.03;;;1.63;;
51862;SDS011;37900;52.996;6.278;2022-07-01T04:53:34;2.40;;;1.80;;
51862;SDS011;37900;52.996;6.278;2022-07-01T04:55:59;2.25;;;1.70;;
51862;SDS011;37900;52.996;6.278;2022-07-01T04:58:25;1.52;;;1.42;;
51862;SDS011;37900;52.996;6.278;2022-07-01T05:00:51;1.50;;;1.40;;
51862;SDS011;37900;52.996;6.278;2022-07-01T05:03:17;2.20;;;1.60;;
51862;SDS011;37900;52.996;6.278;2022-07-01T05:05:43;1.38;;;1.25;;
51862;SDS011;37900;52.996;6.278;2022-07-01T05:08:09;1.58;;;1.48;;
51862;SDS011;37900;52.996;6.278;2022-07-01T05:10:35;1.40;;;1.30;;
51862;SDS011;37900;52.996;6.278;2022-07-01T05:13:01;1.75;;;1.45;;
51862;SDS011;37900;52.996;6.278;2022-07-01T05:15:27;1.80;;;1.63;;
51862;SDS011;37900;52.996;6.278;2022-07-01T05:17:52;1.98;;;1.65;;
51862;SDS011;37900;52.996;6.278;2022-07-01T05:20:44;1.70;;;1.40;;
51862;SDS011;37900;52.996;6.278;2022-07-01T05:23:28;1.73;;;1.48;;
51862;SDS011;37900;52.996;6.278;2022-07-01T05:25:54;2.15;;;1.50;;
51862;SDS011;37900;52.996;6.278;2022-07-01T05:28:20;2.22;;;1.40;;
51862;SDS011;37900;52.996;6.278;2022-07-01T05:30:45;1.40;;;1.30;;
51862;SDS011;37900;52.996;6.278;2022-07-01T05:33:11;1.60;;;1.48;;
51862;SDS011;37900;52.996;6.278;2022-07-01T05:35:37;1.60;;;1.50;;
51862;SDS011;37900;52.996;6.278;2022-07-01T05:38:03;1.23;;;1.13;;
51862;SDS011;37900;52.996;6.278;2022-07-01T05:40:28;2.00;;;1.48;;
51862;SDS011;37900;52.996;6.278;2022-07-01T05:42:54;2.35;;;1.67;;
51862;SDS011;37900;52.996;6.278;2022-07-01T05:45:20;1.75;;;1.30;;
51862;SDS011;37900;52.996;6.278;2022-07-01T05:47:46;2.00;;;1.58;;
51862;SDS011;37900;52.996;6.278;2022-07-01T05:50:12;1.70;;;1.58;;
51862;SDS011;37900;52.996;6.278;2022-07-01T05:52:37;2.03;;;1.40;;
51862;SDS011;37900;52.996;6.278;2022-07-01T05:55:03;2.80;;;1.75;;
51862;SDS011;37900;52.996;6.278;2022-07-01T05:57:29;1.50;;;1.40;;
51862;SDS011;37900;52.996;6.278;2022-07-01T05:59:55;1.30;;;1.20;;
51862;SDS011;37900;52.996;6.278;2022-07-01T06:02:20;1.50;;;1.33;;
51862;SDS011;37900;52.996;6.278;2022-07-01T06:04:46;1.70;;;1.50;;
51862;SDS011;37900;52.996;6.278;2022-07-01T06:07:12;1.63;;;1.50;;
51862;SDS011;37900;52.996;6.278;2022-07-01T06:09:38;1.58;;;1.45;;
51862;SDS011;37900;52.996;6.278;2022-07-01T06:12:04;1.75;;;1.63;;
51862;SDS011;37900;52.996;6.278;2022-07-01T06:14:31;1.60;;;1.50;;
51862;SDS011;37900;52.996;6.278;2022-07-01T06:16:57;1.47;;;1.33;;
51862;SDS011;37900;52.996;6.278;2022-07-01T06:19:23;2.72;;;2.15;;
51862;SDS011;37900;52.996;6.278;2022-07-01T06:21:49;2.40;;;1.83;;
51862;SDS011;37900;52.996;6.278;2022-07-01T06:24:15;2.38;;;2.05;;
51862;SDS011;37900;52.996;6.278;2022-07-01T06:26:40;2.20;;;1.95;;
51862;SDS011;37900;52.996;6.278;2022-07-01T06:29:07;2.13;;;1.90;;
51862;SDS011;37900;52.996;6.278;2022-07-01T06:31:33;2.65;;;1.77;;
51862;SDS011;37900;52.996;6.278;2022-07-01T06:33:59;2.88;;;2.20;;
51862;SDS011;37900;52.996;6.278;2022-07-01T06:36:25;3.30;;;2.00;;
51862;SDS011;37900;52.996;6.278;2022-07-01T06:38:51;3.13;;;2.10;;
51862;SDS011;37900;52.996;6.278;2022-07-01T06:41:17;2.30;;;1.88;;
51862;SDS011;37900;52.996;6.278;2022-07-01T06:43:52;3.58;;;2.25;;
51862;SDS011;37900;52.996;6.278;2022-07-01T06:46:22;2.90;;;2.13;;
51862;SDS011;37900;52.996;6.278;2022-07-01T06:48:48;2.75;;;1.92;;
51862;SDS011;37900;52.996;6.278;2022-07-01T06:51:14;3.83;;;2.20;;
51862;SDS011;37900;52.996;6.278;2022-07-01T06:53:40;3.95;;;2.05;;
51862;SDS011;37900;52.996;6.278;2022-07-01T06:56:05;2.83;;;2.20;;
51862;SDS011;37900;52.996;6.278;2022-07-01T06:58:31;12.27;;;2.90;;
51862;SDS011;37900;52.996;6.278;2022-07-01T07:00:57;3.60;;;2.45;;
51862;SDS011;37900;52.996;6.278;2022-07-01T07:03:23;6.38;;;3.42;;
51862;SDS011;37900;52.996;6.278;2022-07-01T07:05:49;4.60;;;3.25;;
51862;SDS011;37900;52.996;6.278;2022-07-01T07:08:14;5.53;;;3.55;;
51862;SDS011;37900;52.996;6.278;2022-07-01T07:10:40;6.00;;;3.80;;
51862;SDS011;37900;52.996;6.278;2022-07-01T07:13:06;5.43;;;3.72;;
51862;SDS011;37900;52.996;6.278;2022-07-01T07:15:32;8.32;;;3.50;;
51862;SDS011;37900;52.996;6.278;2022-07-01T07:17:57;4.70;;;3.88;;
51862;SDS011;37900;52.996;6.278;2022-07-01T07:20:24;4.93;;;4.45;;
51862;SDS011;37900;52.996;6.278;2022-07-01T07:22:50;5.93;;;4.20;;
51862;SDS011;37900;52.996;6.278;2022-07-01T07:25:16;5.05;;;4.05;;
51862;SDS011;37900;52.996;6.278;2022-07-01T07:27:42;16.35;;;12.90;;
51862;SDS011;37900;52.996;6.278;2022-07-01T07:30:11;14.55;;;10.82;;
51862;SDS011;37900;52.996;6.278;2022-07-01T07:32:41;13.75;;;9.98;;
51862;SDS011;37900;52.996;6.278;2022-07-01T07:35:07;13.20;;;9.15;;
51862;SDS011;37900;52.996;6.278;2022-07-01T07:37:34;11.77;;;8.23;;
51862;SDS011;37900;52.996;6.278;2022-07-01T07:40:00;8.05;;;6.03;;
51862;SDS011;37900;52.996;6.278;2022-07-01T07:42:28;8.15;;;6.10;;
51862;SDS011;37900;52.996;6.278;2022-07-01T07:44:54;11.50;;;6.40;;
51862;SDS011;37900;52.996;6.278;2022-07-01T07:47:20;7.60;;;5.78;;
51862;SDS011;37900;52.996;6.278;2022-07-01T07:49:46;5.97;;;5.35;;
51862;SDS011;37900;52.996;6.278;2022-07-01T07:52:12;8.43;;;5.28;;
51862;SDS011;37900;52.996;6.278;2022-07-01T07:54:38;6.10;;;5.10;;
51862;SDS011;37900;52.996;6.278;2022-07-01T07:57:04;8.73;;;6.07;;
51862;SDS011;37900;52.996;6.278;2022-07-01T07:59:32;8.05;;;5.10;;
51862;SDS011;37900;52.996;6.278;2022-07-01T08:01:57;5.95;;;5.35;;
51862;SDS011;37900;52.996;6.278;2022-07-01T08:04:23;9.77;;;5.20;;
51862;SDS011;37900;52.996;6.278;2022-07-01T08:06:49;7.57;;;5.88;;
51862;SDS011;37900;52.996;6.278;2022-07-01T08:09:14;6.97;;;4.82;;
51862;SDS011;37900;52.996;6.278;2022-07-01T08:11:40;7.15;;;4.78;;
51862;SDS011;37900;52.996;6.278;2022-07-01T08:14:06;5.90;;;4.43;;
51862;SDS011;37900;52.996;6.278;2022-07-01T08:16:32;5.65;;;4.18;;
51862;SDS011;37900;52.996;6.278;2022-07-01T08:18:58;5.78;;;4.68;;
51862;SDS011;37900;52.996;6.278;2022-07-01T08:21:23;6.25;;;4.68;;
51862;SDS011;37900;52.996;6.278;2022-07-01T08:23:49;5.50;;;4.13;;
51862;SDS011;37900;52.996;6.278;2022-07-01T08:26:15;4.80;;;4.20;;
51862;SDS011;37900;52.996;6.278;2022-07-01T08:28:42;4.68;;;3.90;;
51862;SDS011;37900;52.996;6.278;2022-07-01T08:31:08;5.03;;;4.00;;
51862;SDS011;37900;52.996;6.278;2022-07-01T08:33:34;6.00;;;4.38;;
51862;SDS011;37900;52.996;6.278;2022-07-01T08:36:00;5.88;;;4.47;;
51862;SDS011;37900;52.996;6.278;2022-07-01T08:38:25;5.00;;;3.78;;
51862;SDS011;37900;52.996;6.278;2022-07-01T08:40:51;5.80;;;4.45;;
51862;SDS011;37900;52.996;6.278;2022-07-01T08:43:17;6.10;;;4.45;;
51862;SDS011;37900;52.996;6.278;2022-07-01T08:45:43;5.93;;;3.83;;
51862;SDS011;37900;52.996;6.278;2022-07-01T08:48:09;7.38;;;4.20;;
51862;SDS011;37900;52.996;6.278;2022-07-01T08:50:39;8.10;;;4.00;;
51862;SDS011;37900;52.996;6.278;2022-07-01T08:53:05;5.43;;;3.80;;
51862;SDS011;37900;52.996;6.278;2022-07-01T08:55:33;7.10;;;4.13;;
51862;SDS011;37900;52.996;6.278;2022-07-01T08:58:23;6.25;;;3.83;;
51862;SDS011;37900;52.996;6.278;2022-07-01T09:00:50;5.00;;;4.00;;
51862;SDS011;37900;52.996;6.278;2022-07-01T09:03:16;6.40;;;3.92;;
51862;SDS011;37900;52.996;6.278;2022-07-01T09:05:52;5.00;;;3.65;;
51862;SDS011;37900;52.996;6.278;2022-07-01T09:08:19;4.60;;;4.10;;
51862;SDS011;37900;52.996;6.278;2022-07-01T09:10:45;4.65;;;4.10;;
51862;SDS011;37900;52.996;6.278;2022-07-01T09:13:12;4.80;;;3.63;;
51862;SDS011;37900;52.996;6.278;2022-07-01T09:15:39;4.40;;;3.90;;
51862;SDS011;37900;52.996;6.278;2022-07-01T09:18:10;5.53;;;4.40;;
51862;SDS011;37900;52.996;6.278;2022-07-01T09:20:36;5.07;;;4.30;;
51862;SDS011;37900;52.996;6.278;2022-07-01T09:23:14;4.57;;;4.15;;
51862;SDS011;37900;52.996;6.278;2022-07-01T09:25:41;4.40;;;3.90;;
51862;SDS011;37900;52.996;6.278;2022-07-01T09:28:09;5.15;;;3.92;;
51862;SDS011;37900;52.996;6.278;2022-07-01T09:30:46;5.73;;;3.80;;
51862;SDS011;37900;52.996;6.278;2022-07-01T09:33:14;5.78;;;4.10;;
51862;SDS011;37900;52.996;6.278;2022-07-01T09:35:43;4.13;;;3.60;;
51862;SDS011;37900;52.996;6.278;2022-07-01T09:38:10;5.47;;;3.72;;
51862;SDS011;37900;52.996;6.278;2022-07-01T09:40:54;7.18;;;4.22;;
51862;SDS011;37900;52.996;6.278;2022-07-01T09:43:25;4.47;;;3.75;;
51862;SDS011;37900;52.996;6.278;2022-07-01T09:50:45;4.30;;;3.72;;
51862;SDS011;37900;52.996;6.278;2022-07-01T09:53:12;4.93;;;3.65;;
51862;SDS011;37900;52.996;6.278;2022-07-01T09:58:04;4.60;;;4.13;;
51862;SDS011;37900;52.996;6.278;2022-07-01T10:00:31;6.20;;;3.65;;
51862;SDS011;37900;52.996;6.278;2022-07-01T10:03:00;4.22;;;3.47;;
51862;SDS011;37900;52.996;6.278;2022-07-01T10:05:26;4.85;;;3.88;;
51862;SDS011;37900;52.996;6.278;2022-07-01T10:13:45;4.07;;;3.70;;
51862;SDS011;37900;52.996;6.278;2022-07-01T10:16:11;5.25;;;3.88;;
51862;SDS011;37900;52.996;6.278;2022-07-01T10:18:39;4.00;;;3.40;;
51862;SDS011;37900;52.996;6.278;2022-07-01T10:21:05;5.25;;;4.75;;
51862;SDS011;37900;52.996;6.278;2022-07-01T10:23:38;5.13;;;3.30;;
51862;SDS011;37900;52.996;6.278;2022-07-01T10:26:06;3.88;;;3.47;;
51862;SDS011;37900;52.996;6.278;2022-07-01T10:31:09;3.60;;;3.28;;
51862;SDS011;37900;52.996;6.278;2022-07-01T10:33:43;7.07;;;3.72;;
51862;SDS011;37900;52.996;6.278;2022-07-01T10:38:35;4.07;;;3.63;;
51862;SDS011;37900;52.996;6.278;2022-07-01T10:41:35;3.90;;;3.15;;
51862;SDS011;37900;52.996;6.278;2022-07-01T10:44:14;3.90;;;3.30;;
51862;SDS011;37900;52.996;6.278;2022-07-01T10:46:51;5.75;;;3.70;;
51862;SDS011;37900;52.996;6.278;2022-07-01T10:52:01;4.10;;;3.47;;
51862;SDS011;37900;52.996;6.278;2022-07-01T11:02:35;4.25;;;2.95;;
51862;SDS011;37900;52.996;6.278;2022-07-01T11:05:03;3.80;;;3.15;;
51862;SDS011;37900;52.996;6.278;2022-07-01T11:07:35;3.80;;;2.92;;
51862;SDS011;37900;52.996;6.278;2022-07-01T11:10:06;3.83;;;3.03;;
51862;SDS011;37900;52.996;6.278;2022-07-01T11:12:32;3.97;;;3.38;;
51862;SDS011;37900;52.996;6.278;2022-07-01T11:14:59;3.17;;;2.83;;
51862;SDS011;37900;52.996;6.278;2022-07-01T11:17:27;4.35;;;2.88;;
51862;SDS011;37900;52.996;6.278;2022-07-01T11:19:54;3.72;;;3.03;;
51862;SDS011;37900;52.996;6.278;2022-07-01T11:22:26;3.70;;;2.88;;
51862;SDS011;37900;52.996;6.278;2022-07-01T11:24:57;3.22;;;2.80;;
51862;SDS011;37900;52.996;6.278;2022-07-01T11:27:29;4.80;;;3.00;;
51862;SDS011;37900;52.996;6.278;2022-07-01T11:29:56;3.67;;;3.20;;
51862;SDS011;37900;52.996;6.278;2022-07-01T11:32:30;3.20;;;2.90;;
51862;SDS011;37900;52.996;6.278;2022-07-01T11:34:58;3.75;;;2.90;;
51862;SDS011;37900;52.996;6.278;2022-07-01T11:37:29;3.58;;;3.22;;
51862;SDS011;37900;52.996;6.278;2022-07-01T11:40:15;3.55;;;2.92;;
51862;SDS011;37900;52.996;6.278;2022-07-01T11:42:42;3.97;;;2.67;;
51862;SDS011;37900;52.996;6.278;2022-07-01T11:45:09;3.53;;;3.15;;
51862;SDS011;37900;52.996;6.278;2022-07-01T11:47:50;5.40;;;3.22;;
51862;SDS011;37900;52.996;6.278;2022-07-01T11:50:17;4.35;;;3.00;;
51862;SDS011;37900;52.996;6.278;2022-07-01T11:52:43;3.15;;;2.85;;
51862;SDS011;37900;52.996;6.278;2022-07-01T11:55:08;3.15;;;2.75;;
51862;SDS011;37900;52.996;6.278;2022-07-01T11:57:34;5.32;;;2.85;;
51862;SDS011;37900;52.996;6.278;2022-07-01T12:00:07;4.07;;;2.85;;
51862;SDS011;37900;52.996;6.278;2022-07-01T12:02:38;3.40;;;3.00;;
51862;SDS011;37900;52.996;6.278;2022-07-01T12:05:04;4.65;;;3.70;;
51862;SDS011;37900;52.996;6.278;2022-07-01T12:07:30;3.10;;;2.80;;
51862;SDS011;37900;52.996;6.278;2022-07-01T12:09:57;3.90;;;2.70;;
51862;SDS011;37900;52.996;6.278;2022-07-01T12:12:24;2.80;;;2.50;;
51862;SDS011;37900;52.996;6.278;2022-07-01T12:14:51;2.72;;;2.50;;
51862;SDS011;37900;52.996;6.278;2022-07-01T12:17:19;3.58;;;2.70;;
51862;SDS011;37900;52.996;6.278;2022-07-01T12:19:46;2.88;;;2.55;;
51862;SDS011;37900;52.996;6.278;2022-07-01T12:22:17;3.35;;;2.40;;
51862;SDS011;37900;52.996;6.278;2022-07-01T12:24:46;3.33;;;2.50;;
51862;SDS011;37900;52.996;6.278;2022-07-01T12:27:12;4.18;;;2.65;;
51862;SDS011;37900;52.996;6.278;2022-07-01T12:32:11;2.58;;;2.38;;
51862;SDS011;37900;52.996;6.278;2022-07-01T12:34:56;5.07;;;2.45;;
51862;SDS011;37900;52.996;6.278;2022-07-01T12:37:27;3.25;;;2.55;;
51862;SDS011;37900;52.996;6.278;2022-07-01T12:39:53;2.92;;;2.50;;
51862;SDS011;37900;52.996;6.278;2022-07-01T12:42:22;2.63;;;2.42;;
51862;SDS011;37900;52.996;6.278;2022-07-01T12:44:50;3.10;;;2.70;;
51862;SDS011;37900;52.996;6.278;2022-07-01T12:47:20;3.58;;;2.67;;
51862;SDS011;37900;52.996;6.278;2022-07-01T12:50:08;4.03;;;2.55;;
51862;SDS011;37900;52.996;6.278;2022-07-01T12:52:35;4.45;;;2.83;;
51862;SDS011;37900;52.996;6.278;2022-07-01T12:57:42;2.58;;;2.38;;
51862;SDS011;37900;52.996;6.278;2022-07-01T13:00:08;2.92;;;2.63;;
51862;SDS011;37900;52.996;6.278;2022-07-01T13:02:34;2.60;;;2.40;;
51862;SDS011;37900;52.996;6.278;2022-07-01T13:05:00;2.85;;;2.38;;
51862;SDS011;37900;52.996;6.278;2022-07-01T13:07:26;3.03;;;2.70;;
51862;SDS011;37900;52.996;6.278;2022-07-01T13:09:51;2.60;;;2.40;;
51862;SDS011;37900;52.996;6.278;2022-07-01T13:12:17;3.25;;;2.53;;
51862;SDS011;37900;52.996;6.278;2022-07-01T13:14:43;3.42;;;2.20;;
51862;SDS011;37900;52.996;6.278;2022-07-01T13:17:09;2.45;;;2.22;;
51862;SDS011;37900;52.996;6.278;2022-07-01T13:19:35;2.75;;;2.50;;
51862;SDS011;37900;52.996;6.278;2022-07-01T13:22:05;3.08;;;2.65;;
51862;SDS011;37900;52.996;6.278;2022-07-01T13:24:31;2.40;;;2.20;;
51862;SDS011;37900;52.996;6.278;2022-07-01T13:26:56;2.97;;;2.42;;
51862;SDS011;37900;52.996;6.278;2022-07-01T13:29:22;3.88;;;2.40;;
51862;SDS011;37900;52.996;6.278;2022-07-01T13:31:48;3.17;;;2.03;;
51862;SDS011;37900;52.996;6.278;2022-07-01T13:34:14;2.75;;;2.28;;
51862;SDS011;37900;52.996;6.278;2022-07-01T13:36:39;3.72;;;2.60;;
51862;SDS011;37900;52.996;6.278;2022-07-01T13:39:05;3.63;;;2.50;;
51862;SDS011;37900;52.996;6.278;2022-07-01T13:41:31;3.13;;;2.03;;
51862;SDS011;37900;52.996;6.278;2022-07-01T13:43:57;4.13;;;1.75;;
51862;SDS011;37900;52.996;6.278;2022-07-01T13:46:22;1.63;;;1.50;;
51862;SDS011;37900;52.996;6.278;2022-07-01T13:48:48;1.88;;;1.70;;
51862;SDS011;37900;52.996;6.278;2022-07-01T13:51:14;3.40;;;1.98;;
51862;SDS011;37900;52.996;6.278;2022-07-01T13:53:40;3.03;;;1.63;;
51862;SDS011;37900;52.996;6.278;2022-07-01T13:56:05;3.75;;;1.95;;
51862;SDS011;37900;52.996;6.278;2022-07-01T13:58:31;4.88;;;2.33;;
51862;SDS011;37900;52.996;6.278;2022-07-01T14:00:57;3.00;;;1.60;;
51862;SDS011;37900;52.996;6.278;2022-07-01T14:03:22;2.22;;;1.45;;
51862;SDS011;37900;52.996;6.278;2022-07-01T14:05:48;3.15;;;1.50;;
51862;SDS011;37900;52.996;6.278;2022-07-01T14:08:14;1.88;;;1.52;;
51862;SDS011;37900;52.996;6.278;2022-07-01T14:10:43;2.05;;;1.80;;
51862;SDS011;37900;52.996;6.278;2022-07-01T14:13:09;2.50;;;1.40;;
51862;SDS011;37900;52.996;6.278;2022-07-01T14:15:35;7.23;;;2.00;;
51862;SDS011;37900;52.996;6.278;2022-07-01T14:18:02;4.03;;;1.75;;
51862;SDS011;37900;52.996;6.278;2022-07-01T14:20:28;5.80;;;1.40;;
51862;SDS011;37900;52.996;6.278;2022-07-01T14:22:54;3.20;;;1.38;;
51862;SDS011;37900;52.996;6.278;2022-07-01T14:25:20;3.95;;;1.90;;
51862;SDS011;37900;52.996;6.278;2022-07-01T14:27:46;3.08;;;1.60;;
51862;SDS011;37900;52.996;6.278;2022-07-01T14:30:14;2.90;;;1.10;;
51862;SDS011;37900;52.996;6.278;2022-07-01T14:35:07;4.85;;;1.55;;
51862;SDS011;37900;52.996;6.278;2022-07-01T14:37:34;3.17;;;1.50;;
51862;SDS011;37900;52.996;6.278;2022-07-01T14:40:02;3.40;;;1.27;;
51862;SDS011;37900;52.996;6.278;2022-07-01T14:42:28;4.95;;;1.45;;
51862;SDS011;37900;52.996;6.278;2022-07-01T14:44:54;2.70;;;1.50;;
51862;SDS011;37900;52.996;6.278;2022-07-01T14:47:20;4.20;;;1.60;;
51862;SDS011;37900;52.996;6.278;2022-07-01T14:49:47;2.30;;;1.30;;
51862;SDS011;37900;52.996;6.278;2022-07-01T14:52:15;3.25;;;1.13;;
51862;SDS011;37900;52.996;6.278;2022-07-01T14:54:42;2.55;;;1.30;;
51862;SDS011;37900;52.996;6.278;2022-07-01T14:57:08;1.53;;;0.93;;
51862;SDS011;37900;52.996;6.278;2022-07-01T14:59:34;2.25;;;1.33;;
51862;SDS011;37900;52.996;6.278;2022-07-01T15:02:01;4.07;;;1.42;;
51862;SDS011;37900;52.996;6.278;2022-07-01T15:04:29;3.22;;;1.30;;
51862;SDS011;37900;52.996;6.278;2022-07-01T15:06:56;3.08;;;1.67;;
51862;SDS011;37900;52.996;6.278;2022-07-01T15:09:22;2.50;;;1.30;;
51862;SDS011;37900;52.996;6.278;2022-07-01T15:11:49;6.05;;;1.75;;
51862;SDS011;37900;52.996;6.278;2022-07-01T15:14:15;2.83;;;1.43;;
51862;SDS011;37900;52.996;6.278;2022-07-01T15:16:41;4.10;;;1.50;;
51862;SDS011;37900;52.996;6.278;2022-07-01T15:19:06;3.25;;;1.20;;
51862;SDS011;37900;52.996;6.278;2022-07-01T15:21:32;3.70;;;1.65;;
51862;SDS011;37900;52.996;6.278;2022-07-01T15:23:58;2.58;;;1.00;;
51862;SDS011;37900;52.996;6.278;2022-07-01T15:26:24;3.75;;;1.50;;
51862;SDS011;37900;52.996;6.278;2022-07-01T15:28:50;2.20;;;1.30;;
51862;SDS011;37900;52.996;6.278;2022-07-01T15:31:15;3.63;;;1.48;;